Time;durP1;ratioP1;P1;durP2;ratioP2;P2;SDS_P1;SDS_P2;PMS_P1;PMS_P2;Temp;Humidity;BMP_temperature;BMP_pressure;BME280_temperature;BME280_humidity;BME280_pressure;Samples;Min_cycle;Max_cycle;Signal;HPM_P1;HPM_P2
2024/02/06 00:00:28;;;;;;;6.85;3.08;;;;;;;10.33;75.10;99605.78;5003774;28;20056;-54
2024/02/06 00:02:55;;;;;;;11.00;3.47;;;;;;;10.42;74.66;99618.66;4997917;28;20057;-56
2024/02/06 00:05:21;;;;;;;7.35;4.38;;;;;;;10.38;74.15;99610.06;5001288;28;20050;-53
2024/02/06 00:07:49;;;;;;;4.47;2.47;;;;;;;10.42;75.03;99621.25;5002802;28;20153;-57
2024/02/06 00:10:17;;;;;;;5.70;2.40;;;;;;;10.44;74.59;99629.88;4995912;28;20127;-53
2024/02/06 00:12:46;;;;;;;7.30;3.13;;;;;;;10.40;76.03;99623.84;5001103;28;20053;-55
2024/02/06 00:15:13;;;;;;;5.53;2.65;;;;;;;10.44;74.98;99624.69;5002726;28;20862;-54
2024/02/06 00:17:39;;;;;;;4.25;2.72;;;;;;;10.43;75.17;99612.59;5004101;28;20052;-55
2024/02/06 00:20:07;;;;;;;9.30;2.97;;;;;;;10.48;74.88;99613.47;4997008;28;20129;-52
2024/02/06 00:22:34;;;;;;;7.00;2.55;;;;;;;10.45;75.63;99612.59;5004066;28;20050;-55
2024/02/06 00:25:01;;;;;;;7.68;1.90;;;;;;;10.51;76.06;99618.59;4998706;28;20046;-59
2024/02/06 00:27:27;;;;;;;3.95;2.22;;;;;;;10.56;74.73;99617.69;5002170;28;20050;-57
2024/02/06 00:29:55;;;;;;;2.53;2.00;;;;;;;10.52;75.92;99622.91;5000413;28;20744;-58
2024/02/06 00:32:21;;;;;;;5.20;2.80;;;;;;;10.60;74.49;99624.56;4997673;28;20057;-54
2024/02/06 00:34:48;;;;;;;6.40;1.88;;;;;;;10.63;74.84;99629.69;5000248;28;20112;-56
2024/02/06 00:37:18;;;;;;;4.20;2.05;;;;;;;10.62;75.43;99638.34;5005455;28;20113;-57
2024/02/06 00:39:45;;;;;;;;;;;;;;;10.53;75.68;99634.97;5003109;28;20111;-56
2024/02/06 00:42:12;;;;;;;4.40;2.20;;;;;;;10.51;76.30;99631.53;5005170;28;19940;-55
2024/02/06 00:44:40;;;;;;;8.30;1.77;;;;;;;10.65;75.42;99631.44;5004852;28;20053;-57
2024/02/06 00:47:08;;;;;;;5.03;2.22;;;;;;;10.69;74.57;99626.19;5005492;28;20060;-56
2024/02/06 00:49:36;;;;;;;8.57;2.55;;;;;;;10.70;75.57;99635.69;5007793;28;20057;-53
2024/02/06 00:52:03;;;;;;;2.85;2.65;;;;;;;10.71;74.78;99624.47;5000417;28;20046;-60
2024/02/06 00:54:30;;;;;;;4.88;2.70;;;;;;;10.71;74.88;99633.06;5003536;28;20054;-59
2024/02/06 00:56:56;;;;;;;5.05;2.35;;;;;;;10.73;74.55;99620.09;5004039;28;20503;-54
2024/02/06 00:59:25;;;;;;;5.55;2.30;;;;;;;10.74;75.36;99620.09;5005462;28;20046;-58
2024/02/06 01:01:52;;;;;;;8.57;2.10;;;;;;;10.75;74.06;99619.25;5004636;28;20045;-52
2024/02/06 01:04:19;;;;;;;2.10;1.63;;;;;;;10.75;75.27;99613.19;5005457;28;20056;-55
2024/02/06 01:06:46;;;;;;;6.65;2.55;;;;;;;10.76;74.74;99609.72;5003919;28;20140;-52
2024/02/06 01:09:13;;;;;;;4.22;2.22;;;;;;;10.66;75.19;99606.38;4999871;28;20129;-56
2024/02/06 01:11:40;;;;;;;5.05;1.80;;;;;;;10.72;75.26;99606.31;5002334;28;20052;-53
2024/02/06 01:14:07;;;;;;;4.85;1.98;;;;;;;10.74;75.20;99596.78;5002432;28;20046;-56
2024/02/06 01:16:34;;;;;;;4.80;1.92;;;;;;;10.74;74.17;99594.19;5004330;28;20053;-54
2024/02/06 01:19:01;;;;;;;2.60;1.98;;;;;;;10.71;75.25;99581.25;5002075;28;20096;-56
2024/02/06 01:21:28;;;;;;;3.03;0.82;;;;;;;10.73;75.24;99583.84;5001985;28;20507;-58
2024/02/06 01:23:54;;;;;;;4.00;1.33;;;;;;;10.75;74.05;99572.63;5001266;28;20422;-56
2024/02/06 01:26:21;;;;;;;1.70;1.33;;;;;;;10.70;74.55;99574.38;5001624;28;20414;-54
2024/02/06 01:28:50;;;;;;;3.90;2.75;;;;;;;10.65;74.18;99571.84;5005233;28;20049;-57
2024/02/06 01:31:17;;;;;;;6.47;2.15;;;;;;;10.60;75.41;99558.06;4999602;28;20050;-55
2024/02/06 01:33:44;;;;;;;3.65;1.95;;;;;;;10.53;75.86;99544.34;5004443;28;20108;-58
2024/02/06 01:36:10;;;;;;;5.50;2.05;;;;;;;10.47;75.85;99552.16;5003799;28;20045;-56
2024/02/06 01:38:38;;;;;;;5.78;1.90;;;;;;;10.51;74.95;99548.66;5002433;28;20060;-53
2024/02/06 01:41:05;;;;;;;3.95;1.95;;;;;;;10.47;74.83;99547.00;5004200;28;20072;-56
2024/02/06 01:43:32;;;;;;;3.97;1.65;;;;;;;10.45;75.41;99548.75;4998636;28;20052;-56
2024/02/06 01:46:01;;;;;;;6.28;2.78;;;;;;;10.44;75.36;99552.19;5001983;28;20053;-56
2024/02/06 01:48:29;;;;;;;5.60;1.95;;;;;;;10.47;75.67;99547.00;5003015;28;20137;-55
2024/02/06 01:50:56;;;;;;;3.80;1.98;;;;;;;10.49;76.16;99557.34;5002511;28;20060;-54
2024/02/06 01:53:23;;;;;;;2.42;1.95;;;;;;;10.51;76.24;99551.25;5002188;28;20046;-58
2024/02/06 01:55:50;;;;;;;5.30;1.90;;;;;;;10.56;75.17;99542.59;5001259;28;20054;-53
2024/02/06 01:58:17;;;;;;;4.63;2.05;;;;;;;10.54;75.52;99545.22;4999911;28;20057;-55
2024/02/06 02:00:44;;;;;;;3.60;1.58;;;;;;;10.57;75.24;99537.38;5002495;28;20064;-58
2024/02/06 02:03:12;;;;;;;5.47;1.83;;;;;;;10.53;76.22;99535.72;5004691;28;20096;-57
2024/02/06 02:05:44;;;;;;;4.57;2.15;;;;;;;10.53;75.47;99527.94;5003729;28;20064;-54
2024/02/06 02:08:11;;;;;;;1.90;0.63;;;;;;;10.58;75.91;99522.72;4997435;28;20965;-56
2024/02/06 02:10:37;;;;;;;4.78;2.42;;;;;;;10.62;76.39;99519.22;5001785;28;20096;-54
2024/02/06 02:13:04;;;;;;;3.15;1.77;;;;;;;10.60;76.19;99510.63;5002579;28;20100;-57
2024/02/06 02:15:31;;;;;;;4.35;3.58;;;;;;;10.64;75.94;99509.72;5000385;28;20076;-54
2024/02/06 02:17:58;;;;;;;2.15;1.98;;;;;;;10.64;76.13;99501.94;4999922;28;20046;-54
2024/02/06 02:20:25;;;;;;;4.88;2.22;;;;;;;10.67;75.36;99501.88;5006890;28;20053;-59
2024/02/06 02:22:53;;;;;;;4.13;1.95;;;;;;;10.67;75.43;99496.69;5002825;28;20046;-55
2024/02/06 02:25:20;;;;;;;4.82;2.15;;;;;;;10.70;75.91;99496.66;5000018;28;20054;-52
2024/02/06 02:27:46;;;;;;;2.78;1.63;;;;;;;10.70;76.58;99486.31;5002014;28;20111;-56
2024/02/06 02:30:14;;;;;;;2.72;2.53;;;;;;;10.76;75.48;99481.06;5003665;28;20049;-52
2024/02/06 02:32:42;;;;;;;2.30;1.90;;;;;;;10.70;76.88;99491.50;4997259;28;20129;-57
2024/02/06 02:35:12;;;;;;;2.63;2.17;;;;;;;10.73;76.59;99483.69;5001980;28;20104;-53
2024/02/06 02:37:39;;;;;;;2.22;2.10;;;;;;;10.75;76.44;99479.38;4998604;28;20145;-57
2024/02/06 02:40:07;;;;;;;4.35;2.25;;;;;;;10.79;75.67;99470.66;4997516;28;20054;-56
2024/02/06 02:42:34;;;;;;;3.25;1.63;;;;;;;10.83;75.48;99470.59;5001926;28;20060;-57
2024/02/06 02:45:00;;;;;;;2.38;0.77;;;;;;;10.77;75.75;99477.59;5002217;28;20821;-54
2024/02/06 02:47:27;;;;;;;2.88;2.33;;;;;;;10.84;76.50;99482.72;4999738;28;20471;-58
2024/02/06 02:49:54;;;;;;;2.35;2.15;;;;;;;10.87;75.94;99487.81;5001446;28;20129;-57
2024/02/06 02:52:20;;;;;;;3.85;2.13;;;;;;;10.84;76.44;99473.19;5001994;28;20064;-54
2024/02/06 02:54:47;;;;;;;4.82;2.10;;;;;;;10.87;75.32;99456.72;5001289;28;20050;-55
2024/02/06 02:57:14;;;;;;;7.32;2.47;;;;;;;10.87;76.75;99451.56;4998578;28;20054;-59
2024/02/06 02:59:40;;;;;;;6.32;2.15;;;;;;;10.83;75.71;99455.06;5000345;28;20052;-51
2024/02/06 03:02:07;;;;;;;6.57;3.70;;;;;;;10.86;76.56;99442.06;4997012;28;20058;-53
2024/02/06 03:04:34;;;;;;;3.25;1.95;;;;;;;10.89;76.30;99444.63;5004340;28;20050;-61
2024/02/06 03:07:01;;;;;;;7.88;3.00;;;;;;;10.90;76.36;99441.16;5003406;28;20149;-57
2024/02/06 03:09:29;;;;;;;3.45;2.00;;;;;;;10.83;75.76;99434.34;5003342;28;20041;-53
2024/02/06 03:11:55;;;;;;;6.85;2.97;;;;;;;10.95;76.22;99443.69;5003723;28;20054;-57
2024/02/06 03:14:23;;;;;;;4.03;1.92;;;;;;;10.96;75.64;99440.22;4997781;28;20054;-59
2024/02/06 03:16:50;;;;;;;4.80;1.00;;;;;;;10.92;75.07;99423.88;5003640;28;20385;-56
2024/02/06 03:19:17;;;;;;;3.70;2.42;;;;;;;10.94;75.15;99437.63;5003204;28;20061;-59
2024/02/06 03:21:44;;;;;;;7.43;2.65;;;;;;;10.96;74.82;99422.94;4999663;28;20050;-55
2024/02/06 03:24:11;;;;;;;7.57;2.35;;;;;;;11.00;75.71;99416.84;5000278;28;20049;-53
2024/02/06 03:26:38;;;;;;;4.30;1.88;;;;;;;10.98;75.63;99408.22;4997700;28;20565;-53
2024/02/06 03:29:04;;;;;;;7.10;2.47;;;;;;;10.92;75.00;99403.97;5001447;28;20049;-56
2024/02/06 03:31:31;;;;;;;6.43;2.70;;;;;;;10.89;76.03;99405.75;4994244;28;20050;-53
2024/02/06 03:33:58;;;;;;;2.58;1.88;;;;;;;10.92;76.29;99414.34;4996207;28;20046;-54
2024/02/06 03:36:25;;;;;;;7.72;2.63;;;;;;;10.98;76.15;99407.38;4997811;28;20503;-58
2024/02/06 03:38:51;;;;;;;2.25;1.40;;;;;;;10.93;75.92;99404.84;4997938;28;20068;-56
2024/02/06 03:41:18;;;;;;;5.03;2.75;;;;;;;11.00;75.79;99405.59;5004667;28;20072;-58
2024/02/06 03:43:44;;;;;;;3.33;2.08;;;;;;;10.99;75.10;99403.91;5000938;28;20068;-56
2024/02/06 03:46:11;;;;;;;3.42;1.30;;;;;;;11.00;75.32;99401.28;5002664;28;20385;-56
2024/02/06 03:48:38;;;;;;;3.08;0.68;;;;;;;11.00;76.01;99397.81;5004028;28;20470;-55
2024/02/06 03:51:05;;;;;;;3.47;2.03;;;;;;;11.00;74.85;99405.59;4994513;28;20503;-56
2024/02/06 03:53:32;;;;;;;5.63;1.77;;;;;;;10.95;76.49;99403.09;4999004;28;20048;-59
2024/02/06 03:55:59;;;;;;;5.78;2.03;;;;;;;10.99;74.97;99399.59;4998560;28;20061;-55
2024/02/06 03:58:26;;;;;;;5.30;2.30;;;;;;;11.02;75.39;99399.50;5005541;28;20077;-54
2024/02/06 04:00:53;;;;;;;3.83;2.83;;;;;;;11.00;76.04;99396.09;5000796;28;20511;-56
2024/02/06 04:03:19;;;;;;;3.88;2.03;;;;;;;11.03;75.91;99370.16;4999704;28;20082;-54
2024/02/06 04:05:46;;;;;;;7.15;2.17;;;;;;;11.01;76.18;99377.06;4994058;28;20078;-57
2024/02/06 04:08:13;;;;;;;4.15;1.77;;;;;;;11.00;75.61;99359.81;4998349;28;20046;-58
2024/02/06 04:10:40;;;;;;;3.90;1.88;;;;;;;10.95;75.54;99359.06;4996608;28;20057;-56
2024/02/06 04:13:08;;;;;;;3.72;2.20;;;;;;;10.98;75.45;99366.75;5003137;28;20046;-60
2024/02/06 04:15:35;;;;;;;2.38;1.45;;;;;;;10.98;75.94;99358.97;4998417;28;20476;-55
2024/02/06 04:18:04;;;;;;;4.85;2.30;;;;;;;10.86;76.71;99354.84;5001797;28;20133;-56
2024/02/06 04:20:32;;;;;;;3.33;2.00;;;;;;;10.96;76.70;99358.16;5004163;28;20053;-53
2024/02/06 04:23:00;;;;;;;4.65;2.28;;;;;;;10.96;75.64;99352.13;5008080;28;20049;-59
2024/02/06 04:25:27;;;;;;;2.03;1.75;;;;;;;10.95;76.36;99351.28;5008644;28;20546;-56
2024/02/06 04:27:54;;;;;;;3.13;1.60;;;;;;;10.98;75.91;99346.03;4999645;28;20050;-55
2024/02/06 04:30:21;;;;;;;5.25;2.53;;;;;;;10.99;76.69;99347.75;5005109;28;20050;-57
2024/02/06 04:32:48;;;;;;;6.07;2.05;;;;;;;11.03;75.62;99344.25;5005565;28;20613;-57
2024/02/06 04:35:15;;;;;;;6.72;1.83;;;;;;;11.03;75.23;99349.41;5008165;28;20053;-49
2024/02/06 04:37:42;;;;;;;2.45;0.95;;;;;;;11.01;76.26;99345.97;5004216;28;20388;-58
2024/02/06 04:40:09;;;;;;;5.57;1.98;;;;;;;11.03;75.65;99344.25;5008627;28;20057;-58
2024/02/06 04:42:36;;;;;;;2.45;1.73;;;;;;;11.07;76.61;99349.38;5001947;28;20050;-56
2024/02/06 04:45:04;;;;;;;4.97;1.95;;;;;;;11.08;76.18;99351.06;5008966;28;20137;-56
2024/02/06 04:47:32;;;;;;;3.08;2.20;;;;;;;11.02;76.76;99357.22;5009209;28;20056;-54
2024/02/06 04:49:59;;;;;;;2.20;2.05;;;;;;;11.03;76.47;99362.38;5008385;28;20125;-59
2024/02/06 04:52:26;;;;;;;4.75;2.95;;;;;;;11.10;75.84;99364.84;5009658;28;20069;-59
2024/02/06 04:54:53;;;;;;;4.53;1.85;;;;;;;11.10;75.73;99363.13;5008862;28;20081;-58
2024/02/06 04:57:20;;;;;;;4.10;1.55;;;;;;;11.09;75.27;99360.56;5008622;28;20068;-57
2024/02/06 04:59:47;;;;;;;3.30;1.77;;;;;;;11.10;75.24;99354.47;5005250;28;20161;-56
2024/02/06 05:02:15;;;;;;;3.47;2.40;;;;;;;11.13;74.76;99350.13;5007112;28;20499;-53
2024/02/06 05:04:43;;;;;;;3.85;2.00;;;;;;;11.11;75.88;99362.25;5008228;28;20054;-54
2024/02/06 05:07:10;;;;;;;4.30;1.80;;;;;;;11.08;74.78;99351.91;5004538;28;20045;-59
2024/02/06 05:09:37;;;;;;;6.43;2.25;;;;;;;11.10;75.96;99363.13;5008250;28;20053;-54
2024/02/06 05:12:05;;;;;;;2.47;2.05;;;;;;;11.11;74.70;99351.03;5007982;28;20068;-58
2024/02/06 05:14:32;;;;;;;2.58;2.25;;;;;;;11.04;74.71;99335.56;5004835;28;20246;-57
2024/02/06 05:16:59;;;;;;;1.63;1.40;;;;;;;11.04;74.86;99334.72;5004370;28;20124;-58
2024/02/06 05:19:26;;;;;;;2.65;2.47;;;;;;;11.03;75.87;99328.69;5007906;28;20116;-54
2024/02/06 05:21:52;;;;;;;2.72;2.50;;;;;;;11.01;75.10;99324.41;5008437;28;20081;-54
2024/02/06 05:24:20;;;;;;;2.17;1.50;;;;;;;10.99;75.41;99319.25;5006289;28;20085;-55
2024/02/06 05:26:48;;;;;;;2.53;1.70;;;;;;;10.97;75.00;99317.56;5007963;28;20898;-53
2024/02/06 05:29:15;;;;;;;4.15;0.52;;;;;;;10.84;76.25;99309.13;5008606;28;20388;-54
2024/02/06 05:31:41;;;;;;;3.58;2.30;;;;;;;10.89;75.08;99303.00;5005919;28;20149;-58
2024/02/06 05:34:09;;;;;;;5.30;1.77;;;;;;;10.86;76.19;99304.78;5005232;28;20045;-56
2024/02/06 05:36:36;;;;;;;5.10;2.45;;;;;;;10.80;75.33;99293.63;5006897;28;20140;-56
2024/02/06 05:39:05;;;;;;;4.18;1.88;;;;;;;10.82;76.24;99300.53;5003564;28;20048;-60
2024/02/06 05:41:33;;;;;;;1.92;1.52;;;;;;;10.73;75.83;99296.34;5002203;28;20099;-54
2024/02/06 05:43:59;;;;;;;2.15;1.42;;;;;;;10.73;76.65;99279.06;5007214;28;20049;-56
2024/02/06 05:46:26;;;;;;;3.15;1.38;;;;;;;10.69;75.82;99280.00;5007309;28;20045;-57
2024/02/06 05:48:54;;;;;;;1.92;1.83;;;;;;;10.66;76.67;99277.44;5003593;28;20045;-54
2024/02/06 05:51:21;;;;;;;1.50;1.40;;;;;;;10.70;76.38;99280.88;5003350;28;20045;-58
2024/02/06 05:53:50;;;;;;;3.00;1.77;;;;;;;10.70;75.97;99273.94;5003611;28;20057;-55
2024/02/06 05:56:17;;;;;;;3.17;2.92;;;;;;;10.69;76.17;99277.41;5006033;28;20073;-57
2024/02/06 05:58:45;;;;;;;3.10;2.25;;;;;;;10.68;76.23;99262.75;5004106;28;20149;-52
2024/02/06 06:01:12;;;;;;;2.40;1.98;;;;;;;10.72;76.14;99266.13;5004107;28;20050;-60
2024/02/06 06:03:39;;;;;;;1.85;1.75;;;;;;;10.63;76.15;99262.81;4997425;28;20045;-54
2024/02/06 06:06:06;;;;;;;4.43;1.52;;;;;;;10.64;76.95;99253.31;5002266;28;20582;-56
2024/02/06 06:08:34;;;;;;;4.65;2.30;;;;;;;10.62;76.61;99257.66;5005054;28;20073;-53
2024/02/06 06:11:01;;;;;;;2.85;2.03;;;;;;;10.60;77.40;99254.25;5002231;28;20058;-51
2024/02/06 06:13:28;;;;;;;6.07;1.88;;;;;;;10.60;77.60;99251.66;5005454;28;20054;-50
2024/02/06 06:15:55;;;;;;;5.20;1.55;;;;;;;10.63;76.23;99246.41;5003580;28;20069;-56
2024/02/06 06:18:22;;;;;;;5.07;2.22;;;;;;;10.54;77.79;99258.63;5003156;28;20085;-54
2024/02/06 06:20:48;;;;;;;2.10;1.98;;;;;;;10.55;77.86;99249.16;5004252;28;20103;-56
2024/02/06 06:23:15;;;;;;;5.50;1.80;;;;;;;10.59;77.69;99255.13;5005118;28;20046;-54
2024/02/06 06:25:42;;;;;;;1.52;1.33;;;;;;;10.51;77.64;99253.50;5003119;28;20492;-58
2024/02/06 06:28:08;;;;;;;1.65;1.55;;;;;;;10.57;78.54;99262.06;5005612;28;20074;-52
2024/02/06 06:30:35;;;;;;;2.05;1.77;;;;;;;10.63;77.57;99257.66;4998134;28;20460;-56
2024/02/06 06:33:03;;;;;;;2.58;1.92;;;;;;;10.68;77.09;99260.16;5002531;28;20050;-59
2024/02/06 06:35:30;;;;;;;4.50;2.70;;;;;;;10.69;77.11;99241.16;5002660;28;20151;-55
2024/02/06 06:37:57;;;;;;;4.25;2.00;;;;;;;10.70;77.09;99245.44;5004477;28;20050;-59
2024/02/06 06:40:26;;;;;;;2.90;1.77;;;;;;;10.67;77.15;99242.91;5004165;28;20054;-58
2024/02/06 06:42:53;;;;;;;2.13;2.03;;;;;;;10.69;77.72;99245.47;5003948;28;20081;-55
2024/02/06 06:45:20;;;;;;;2.10;1.60;;;;;;;10.66;78.18;99238.59;5005775;28;20050;-52
2024/02/06 06:47:47;;;;;;;4.00;2.25;;;;;;;10.70;78.11;99242.84;5005538;28;20046;-53
2024/02/06 06:50:14;;;;;;;2.13;1.25;;;;;;;10.69;77.70;99230.78;5000463;28;20466;-59
2024/02/06 06:52:41;;;;;;;2.75;2.10;;;;;;;10.68;77.25;99244.63;5005000;28;20053;-55
2024/02/06 06:55:08;;;;;;;1.90;1.80;;;;;;;10.61;77.86;99248.19;5002693;28;20053;-56
2024/02/06 06:57:37;;;;;;;3.03;1.27;;;;;;;10.68;78.54;99249.81;5003891;28;20053;-61
2024/02/06 07:00:05;;;;;;;3.05;1.70;;;;;;;10.68;78.21;99249.81;5003014;28;20130;-51
2024/02/06 07:02:32;;;;;;;2.53;2.00;;;;;;;10.74;77.76;99247.09;5005732;28;20057;-55
2024/02/06 07:05:01;;;;;;;2.58;1.73;;;;;;;10.78;77.10;99246.16;5003151;28;20068;-58
2024/02/06 07:07:28;;;;;;;1.73;1.42;;;;;;;10.77;78.03;99244.47;5002505;28;20050;-56
2024/02/06 07:09:54;;;;;;;2.03;1.88;;;;;;;10.77;76.99;99236.69;5002802;28;20054;-53
2024/02/06 07:12:21;;;;;;;1.67;1.45;;;;;;;10.79;77.21;99240.13;5001002;28;20046;-57
2024/02/06 07:14:48;;;;;;;2.22;1.55;;;;;;;10.80;77.30;99241.84;5003333;28;20053;-55
2024/02/06 07:17:15;;;;;;;1.90;1.80;;;;;;;10.82;78.22;99236.63;4996702;28;20058;-53
2024/02/06 07:19:44;;;;;;;1.83;1.23;;;;;;;10.85;77.70;99238.31;5001620;28;20764;-55
2024/02/06 07:22:12;;;;;;;2.17;2.08;;;;;;;10.84;76.92;99239.19;5002191;28;20506;-56
2024/02/06 07:24:39;;;;;;;7.22;0.98;;;;;;;10.86;77.41;99237.41;5003192;28;20557;-56
2024/02/06 07:27:06;;;;;;;1.85;1.38;;;;;;;10.84;78.09;99228.84;5004325;28;20050;-59
2024/02/06 07:29:32;;;;;;;1.58;1.15;;;;;;;10.84;77.47;99241.78;5003017;28;20042;-54
2024/02/06 07:32:01;;;;;;;1.95;1.52;;;;;;;10.88;76.91;99240.84;4999922;28;20064;-56
2024/02/06 07:34:28;;;;;;;2.35;2.05;;;;;;;10.88;76.75;99231.31;5001604;28;20054;-54
2024/02/06 07:36:55;;;;;;;2.25;1.85;;;;;;;10.91;77.58;99220.09;5003500;28;20076;-58
2024/02/06 07:39:22;;;;;;;2.80;1.70;;;;;;;10.86;76.72;99242.59;5002521;28;20050;-56
2024/02/06 07:41:48;;;;;;;2.25;1.85;;;;;;;10.89;77.89;99229.59;4997510;28;20074;-55
2024/02/06 07:44:16;;;;;;;2.72;2.53;;;;;;;10.88;76.79;99231.31;5001500;28;20487;-56
2024/02/06 07:46:43;;;;;;;2.08;1.95;;;;;;;10.91;77.58;99231.28;5002470;28;20075;-58
2024/02/06 07:49:10;;;;;;;2.28;2.08;;;;;;;10.94;77.50;99235.53;5001383;28;20052;-50
2024/02/06 07:51:40;;;;;;;3.78;1.67;;;;;;;10.94;76.85;99230.38;5002735;28;20104;-56
2024/02/06 07:54:07;;;;;;;2.60;2.40;;;;;;;10.88;77.54;99231.31;4999057;28;20052;-60
2024/02/06 07:56:34;;;;;;;1.88;1.77;;;;;;;10.86;76.58;99227.06;5003312;28;20058;-56
2024/02/06 07:59:02;;;;;;;1.50;1.40;;;;;;;10.81;76.71;99227.16;5002160;28;20054;-53
2024/02/06 08:01:29;;;;;;;4.50;1.98;;;;;;;10.93;76.44;99213.13;4997998;28;20177;-55
2024/02/06 08:03:56;;;;;;;4.35;3.92;;;;;;;10.89;77.40;99222.69;5005294;28;20046;-57
2024/02/06 08:06:23;;;;;;;6.03;3.40;;;;;;;10.93;77.42;99218.31;5008490;28;20050;-55
2024/02/06 08:08:50;;;;;;;2.90;2.30;;;;;;;10.91;76.67;99220.09;5004298;28;20130;-58
2024/02/06 08:11:17;;;;;;;1.98;1.80;;;;;;;10.85;76.04;99231.41;5005979;28;20736;-53
2024/02/06 08:13:44;;;;;;;2.90;2.22;;;;;;;10.95;76.53;99228.63;5004266;28;20106;-56
2024/02/06 08:16:11;;;;;;;4.45;2.90;;;;;;;11.00;76.43;99227.69;5002710;28;20050;-54
2024/02/06 08:18:37;;;;;;;3.17;2.15;;;;;;;10.99;76.07;99233.75;5004557;28;20054;-56
2024/02/06 08:21:05;;;;;;;1.45;1.33;;;;;;;10.98;76.43;99246.72;5005358;28;20491;-55
2024/02/06 08:23:32;;;;;;;3.30;2.05;;;;;;;11.01;75.21;99242.34;5006281;28;20149;-57
2024/02/06 08:25:59;;;;;;;2.85;1.98;;;;;;;11.01;75.02;99247.50;5008063;28;20136;-58
2024/02/06 08:28:27;;;;;;;5.55;2.15;;;;;;;11.02;75.57;99244.03;5003913;28;20050;-58
2024/02/06 08:30:54;;;;;;;3.45;1.08;;;;;;;11.02;75.48;99231.06;4998152;28;20568;-56
2024/02/06 08:33:22;;;;;;;4.80;2.65;;;;;;;10.99;74.58;99244.13;4994572;28;20045;-56
2024/02/06 08:35:52;;;;;;;5.47;2.70;;;;;;;11.05;73.65;99244.00;5001814;28;20148;-57
2024/02/06 08:38:19;;;;;;;3.63;2.40;;;;;;;11.04;73.85;99244.88;5002894;28;20132;-53
2024/02/06 08:40:47;;;;;;;6.93;2.72;;;;;;;11.07;72.90;99245.72;5005541;28;20137;-55
2024/02/06 08:43:14;;;;;;;4.57;2.08;;;;;;;11.03;72.95;99240.59;4999125;28;20041;-54
2024/02/06 08:45:44;;;;;;;6.65;3.65;;;;;;;11.10;72.00;99250.81;5004146;28;20054;-56
2024/02/06 08:48:10;;;;;;;5.55;2.47;;;;;;;11.14;72.66;99239.50;5003528;28;20042;-60
2024/02/06 08:50:39;;;;;;;4.72;2.55;;;;;;;11.12;71.58;99239.56;5000764;28;20057;-53
2024/02/06 08:53:05;;;;;;;7.40;3.45;;;;;;;11.17;71.97;99226.50;5002312;28;20072;-56
2024/02/06 08:55:33;;;;;;;9.70;1.70;;;;;;;11.13;72.33;99232.63;5002162;28;20885;-60
2024/02/06 08:58:00;;;;;;;8.13;3.05;;;;;;;11.13;72.42;99224.84;4999914;28;20139;-60
2024/02/06 09:00:27;;;;;;;10.43;3.40;;;;;;;11.18;72.09;99217.88;4999379;28;20100;-56
2024/02/06 09:02:54;;;;;;;12.98;2.05;;;;;;;11.17;70.83;99217.00;5004488;28;24196;-57
2024/02/06 09:05:20;;;;;;;7.53;2.80;;;;;;;11.18;71.74;99207.50;5002585;28;20037;-57
2024/02/06 09:07:47;;;;;;;7.38;3.78;;;;;;;11.17;70.42;99206.63;5002108;28;20065;-57
2024/02/06 09:10:14;;;;;;;9.15;3.85;;;;;;;11.22;70.89;99183.22;5003102;28;20071;-54
2024/02/06 09:12:41;;;;;;;5.78;2.70;;;;;;;11.13;70.02;99188.56;5000244;28;20111;-54
2024/02/06 09:15:08;;;;;;;9.27;3.55;;;;;;;11.23;70.94;99200.50;5000489;28;20070;-55
2024/02/06 09:17:35;;;;;;;27.20;6.80;;;;;;;11.15;69.51;99176.47;5002419;28;20096;-58
2024/02/06 09:20:03;;;;;;;23.60;7.70;;;;;;;11.22;69.99;99178.06;5002691;28;20049;-55
2024/02/06 09:22:30;;;;;;;38.85;9.48;;;;;;;11.20;70.50;99179.81;5001558;28;20103;-58
2024/02/06 09:24:56;;;;;;;19.52;7.03;;;;;;;11.27;70.77;99196.09;5000317;28;20100;-56
2024/02/06 09:27:23;;;;;;;11.13;3.22;;;;;;;11.26;70.19;99195.25;5000621;28;20087;-57
2024/02/06 09:29:50;;;;;;;17.70;4.88;;;;;;;11.30;69.95;99186.53;4999845;28;20058;-56
2024/02/06 09:32:17;;;;;;;11.90;4.45;;;;;;;11.26;70.32;99195.25;4996064;28;20116;-57
2024/02/06 09:34:47;;;;;;;8.68;2.47;;;;;;;11.29;70.73;99189.97;5000305;28;20943;-56
2024/02/06 09:37:17;;;;;;;11.32;5.28;;;;;;;11.26;70.65;99184.00;5001952;28;20076;-59
2024/02/06 09:39:44;;;;;;;12.43;3.90;;;;;;;11.27;70.63;99194.34;5001402;28;20057;-54
2024/02/06 09:42:12;;;;;;;10.90;4.93;;;;;;;11.18;70.59;99197.13;4997915;28;20069;-58
2024/02/06 09:44:39;;;;;;;7.32;3.25;;;;;;;11.21;71.00;99184.09;5000384;28;20081;-54
2024/02/06 09:47:06;;;;;;;7.45;3.97;;;;;;;11.22;70.13;99193.59;5002212;28;20058;-59
2024/02/06 09:49:33;;;;;;;12.10;2.90;;;;;;;11.28;71.29;99193.47;5000258;28;20057;-56
2024/02/06 09:52:03;;;;;;;10.18;2.70;;;;;;;11.29;70.03;99192.56;4998550;28;20152;-53
2024/02/06 09:54:31;;;;;;;8.45;2.80;;;;;;;11.31;71.43;99188.22;4999537;28;20050;-53
2024/02/06 09:56:59;;;;;;;6.05;1.05;;;;;;;11.34;70.39;99189.06;4999388;28;20614;-56
2024/02/06 09:59:27;;;;;;;6.45;2.70;;;;;;;11.33;71.58;99175.25;4997431;28;20054;-60
2024/02/06 10:01:56;;;;;;;8.13;2.80;;;;;;;11.28;70.08;99177.91;5001887;28;20060;-55
2024/02/06 10:04:28;;;;;;;7.75;2.53;;;;;;;11.29;69.99;99182.19;4999521;28;20065;-53
2024/02/06 10:06:55;;;;;;;13.98;3.78;;;;;;;11.36;70.85;99189.88;4993628;28;20053;-57
2024/02/06 10:09:23;;;;;;;11.75;5.13;;;;;;;11.37;70.28;99195.03;4995504;28;20550;-58
2024/02/06 10:11:55;;;;;;;9.32;3.58;;;;;;;11.38;71.04;99188.13;4998086;28;20054;-61
2024/02/06 10:14:22;;;;;;;10.15;2.55;;;;;;;11.40;70.61;99196.69;5003318;28;20054;-54
2024/02/06 10:16:48;;;;;;;14.73;3.15;;;;;;;11.38;69.92;99182.94;5000250;28;20058;-52
2024/02/06 10:19:15;;;;;;;13.32;3.85;;;;;;;11.42;70.49;99189.75;5000467;28;20487;-59
2024/02/06 10:21:42;;;;;;;15.00;3.33;;;;;;;11.52;70.63;99190.44;5001085;28;20430;-53
2024/02/06 10:24:09;;;;;;;14.98;4.57;;;;;;;11.53;70.24;99176.56;4997894;28;20037;-58
2024/02/06 10:26:38;;;;;;;11.15;3.70;;;;;;;11.50;71.37;99172.31;5001971;28;20104;-52
2024/02/06 10:29:07;;;;;;;11.57;3.03;;;;;;;11.51;69.50;99184.38;4998247;28;20163;-54
2024/02/06 10:31:37;;;;;;;8.63;3.85;;;;;;;11.54;71.12;99186.91;5003153;28;20054;-57
2024/02/06 10:34:09;;;;;;;7.63;2.60;;;;;;;11.53;71.13;99187.81;4998999;28;20053;-57
2024/02/06 10:36:39;;;;;;;9.60;3.88;;;;;;;11.57;69.71;99192.03;5002999;28;20058;-58
2024/02/06 10:39:09;;;;;;;11.32;2.35;;;;;;;11.59;69.71;99202.38;4995204;28;20582;-57
2024/02/06 10:41:36;;;;;;;9.10;3.67;;;;;;;11.62;69.80;99206.66;4997705;28;20058;-53
2024/02/06 10:44:23;;;;;;;16.92;3.53;;;;;;;11.62;70.05;99193.69;4998212;28;20042;-58
2024/02/06 10:46:59;;;;;;;14.30;3.92;;;;;;;11.66;69.49;99203.09;5000019;28;20054;-53
2024/02/06 10:49:26;;;;;;;13.18;2.97;;;;;;;11.65;69.67;99206.59;5000867;28;20566;-59
2024/02/06 10:52:11;;;;;;;10.98;3.75;;;;;;;11.69;70.24;99203.88;5000503;28;20081;-52
2024/02/06 10:54:38;;;;;;;11.45;3.60;;;;;;;11.75;70.36;99200.31;4999264;28;20034;-59
2024/02/06 10:57:07;;;;;;;11.48;4.07;;;;;;;11.78;69.99;99213.22;5000608;28;20045;-57
2024/02/06 11:02:28;;;;;;;15.63;2.90;;;;;;;11.88;70.17;99220.78;4987161;28;20924;-56
2024/02/06 11:05:05;;;;;;;9.93;1.27;;;;;;;11.90;71.08;99206.06;4995343;28;20050;-54
2024/02/06 11:07:47;;;;;;;13.27;2.47;;;;;;;11.91;69.49;99218.13;4991156;28;20153;-52
2024/02/06 11:10:23;;;;;;;7.85;2.20;;;;;;;11.96;70.60;99211.97;5013331;28;20345;-60
2024/02/06 11:12:58;;;;;;;9.10;2.60;;;;;;;11.95;69.85;99214.59;5017662;28;20046;-57
2024/02/06 11:15:28;;;;;;;13.13;1.83;;;;;;;11.91;70.88;99210.34;5021067;28;20056;-54
2024/02/06 11:17:54;;;;;;;8.75;1.65;;;;;;;11.91;69.50;99233.72;5014679;28;20056;-54
2024/02/06 11:20:27;;;;;;;9.35;2.25;;;;;;;11.97;69.43;99223.22;5013287;28;20129;-56
2024/02/06 11:22:58;;;;;;;10.93;1.77;;;;;;;11.90;70.61;99217.31;5014030;28;20112;-57
2024/02/06 11:25:29;;;;;;;11.90;2.10;;;;;;;11.97;70.42;99215.44;5012546;28;20062;-57
2024/02/06 11:27:58;;;;;;;6.22;1.85;;;;;;;11.94;70.75;99218.06;5013317;28;20042;-56
2024/02/06 11:30:31;;;;;;;10.02;2.10;;;;;;;11.89;70.41;99205.19;5011905;28;20050;-55
2024/02/06 11:33:04;;;;;;;6.97;1.98;;;;;;;11.88;69.79;99202.63;5015263;28;20049;-52
2024/02/06 11:35:31;;;;;;;6.82;1.83;;;;;;;11.86;71.09;99194.03;5013543;28;20041;-57